Metropolitan Oakland International Airport
KOAK : now visible

Airfield :











YOU CAN JOIN US ON...

 
LOGIN :

Register | Disclaimer

   EN    FR    IT 

 









Legend :    VFR   Marginal VFR   IFR   Intensive IFR   Very Intensive IFR
Visi :
Ceiling :
>= 8 km
>= 3000ft
5 to 8 km
1000 to 3000 ft
1500m to 5 km
500 to 1000 ft
800 to 1500m
200 to 500 ft
< 800m
< 200 ft
Symbols :   Thunderstorms  Fog  Heavy snow  Heavy precipitations  Wind > 20 kt






- Airport Elevation : 9 ft
- IATA code : OAK


KOAK - Metropolitan Oakland International

CURRENT METAR :
  • 221353Z 19009KT 10SM SCT015 OVC020 11/07 A2995 RMK AO2 SLP140 T01110072

EXPIRED METARs :
  • 221253Z VRB05KT 10SM SCT014 OVC021 11/07 A2994 RMK AO2 SLP136 T01110072
  • 221153Z 26008KT 10SM FEW013 OVC020 11/07 A2993 RMK AO2 SLP134 T01110072 10117 20111 53004

TAF KOAK
Valid from the 22 at 12:00 until the 23 at 18:00 UTC


221134Z 2212/2318 VRB06KT P6SM FEW013 OVC020
FM221900 26009KT P6SM SCT015 SCT200
FM222100 27014KT P6SM FEW022 BKN200
FM230100 27016KT P6SM SCT015 BKN200
FM230500 26013KT P6SM BKN015
FM230800 25009KT P6SM OVC012
KZOA FIR / North America



MET'MAP, your aeronautical weather chart ! - Copyright ORBIFLY December 2007 - Disclaimer

ORBIFLY MET'MAP TEAM :

Programming & Development : Alexandra Zaïnal
Concept & original design : Baudouin d'Aumeries
Assistance for programming : Marc-Olivier Méhu
Technical & hardware support : Manuel Goepfert

Contact : metmap@orbifly.com




SOURCES & CREDITS :

   NOAA       Earth
Advisory